sensor_id;sensor_type;location;lat;lon;timestamp;P1;durP1;ratioP1;P2;durP2;ratioP2
54555;SDS011;57291;37.520;15.106;2022-08-25T00:00:11;7.85;;;2.65;;
54555;SDS011;57291;37.520;15.106;2022-08-25T00:02:39;4.20;;;2.20;;
54555;SDS011;57291;37.520;15.106;2022-08-25T00:05:22;3.53;;;2.20;;
54555;SDS011;57291;37.520;15.106;2022-08-25T00:07:53;5.53;;;2.50;;
54555;SDS011;57291;37.520;15.106;2022-08-25T00:10:21;4.85;;;2.30;;
54555;SDS011;57291;37.520;15.106;2022-08-25T00:12:48;5.40;;;2.42;;
54555;SDS011;57291;37.520;15.106;2022-08-25T00:15:15;7.43;;;2.70;;
54555;SDS011;57291;37.520;15.106;2022-08-25T00:17:43;4.13;;;2.50;;
54555;SDS011;57291;37.520;15.106;2022-08-25T00:20:10;6.90;;;2.38;;
54555;SDS011;57291;37.520;15.106;2022-08-25T00:22:37;6.85;;;2.60;;
54555;SDS011;57291;37.520;15.106;2022-08-25T00:25:05;6.38;;;2.40;;
54555;SDS011;57291;37.520;15.106;2022-08-25T00:27:32;6.18;;;2.25;;
54555;SDS011;57291;37.520;15.106;2022-08-25T00:30:00;5.50;;;2.38;;
54555;SDS011;57291;37.520;15.106;2022-08-25T00:32:27;3.30;;;1.90;;
54555;SDS011;57291;37.520;15.106;2022-08-25T00:34:54;4.25;;;2.42;;
54555;SDS011;57291;37.520;15.106;2022-08-25T00:37:23;5.78;;;2.50;;
54555;SDS011;57291;37.520;15.106;2022-08-25T00:39:50;5.72;;;2.22;;
54555;SDS011;57291;37.520;15.106;2022-08-25T00:42:18;5.45;;;2.00;;
54555;SDS011;57291;37.520;15.106;2022-08-25T00:44:46;4.18;;;2.45;;
54555;SDS011;57291;37.520;15.106;2022-08-25T00:47:14;5.43;;;2.30;;
54555;SDS011;57291;37.520;15.106;2022-08-25T00:49:52;4.13;;;2.28;;
54555;SDS011;57291;37.520;15.106;2022-08-25T00:52:27;3.85;;;2.38;;
54555;SDS011;57291;37.520;15.106;2022-08-25T00:54:59;5.05;;;2.35;;
54555;SDS011;57291;37.520;15.106;2022-08-25T00:57:35;4.82;;;2.28;;
54555;SDS011;57291;37.520;15.106;2022-08-25T01:00:08;4.10;;;1.92;;
54555;SDS011;57291;37.520;15.106;2022-08-25T01:02:45;4.65;;;2.42;;
54555;SDS011;57291;37.520;15.106;2022-08-25T01:05:12;3.75;;;2.50;;
54555;SDS011;57291;37.520;15.106;2022-08-25T01:07:40;5.78;;;2.40;;
54555;SDS011;57291;37.520;15.106;2022-08-25T01:10:10;3.70;;;2.20;;
54555;SDS011;57291;37.520;15.106;2022-08-25T01:12:39;4.82;;;1.92;;
54555;SDS011;57291;37.520;15.106;2022-08-25T01:15:07;6.47;;;2.28;;
54555;SDS011;57291;37.520;15.106;2022-08-25T01:20:21;5.13;;;2.58;;
54555;SDS011;57291;37.520;15.106;2022-08-25T01:22:55;5.32;;;2.40;;
54555;SDS011;57291;37.520;15.106;2022-08-25T01:28:03;4.20;;;2.20;;
54555;SDS011;57291;37.520;15.106;2022-08-25T01:30:31;5.70;;;2.50;;
54555;SDS011;57291;37.520;15.106;2022-08-25T01:33:01;7.43;;;2.38;;
54555;SDS011;57291;37.520;15.106;2022-08-25T01:35:30;4.53;;;2.42;;
54555;SDS011;57291;37.520;15.106;2022-08-25T01:37:59;5.78;;;2.35;;
54555;SDS011;57291;37.520;15.106;2022-08-25T01:40:27;5.22;;;2.10;;
54555;SDS011;57291;37.520;15.106;2022-08-25T01:45:34;4.40;;;2.28;;
54555;SDS011;57291;37.520;15.106;2022-08-25T01:48:01;6.43;;;2.58;;
54555;SDS011;57291;37.520;15.106;2022-08-25T01:50:30;4.35;;;2.03;;
54555;SDS011;57291;37.520;15.106;2022-08-25T01:53:03;4.70;;;2.50;;
54555;SDS011;57291;37.520;15.106;2022-08-25T01:55:30;6.38;;;2.22;;
54555;SDS011;57291;37.520;15.106;2022-08-25T01:58:21;4.43;;;2.25;;
54555;SDS011;57291;37.520;15.106;2022-08-25T02:00:51;4.20;;;2.00;;
54555;SDS011;57291;37.520;15.106;2022-08-25T02:03:23;5.28;;;2.30;;
54555;SDS011;57291;37.520;15.106;2022-08-25T02:05:55;6.30;;;2.40;;
54555;SDS011;57291;37.520;15.106;2022-08-25T02:08:23;6.07;;;2.25;;
54555;SDS011;57291;37.520;15.106;2022-08-25T02:10:51;3.78;;;2.22;;
54555;SDS011;57291;37.520;15.106;2022-08-25T02:13:22;5.47;;;2.15;;
54555;SDS011;57291;37.520;15.106;2022-08-25T02:15:57;3.75;;;2.30;;
54555;SDS011;57291;37.520;15.106;2022-08-25T02:18:27;7.70;;;2.53;;
54555;SDS011;57291;37.520;15.106;2022-08-25T02:20:54;6.90;;;2.50;;
54555;SDS011;57291;37.520;15.106;2022-08-25T02:23:22;5.47;;;3.05;;
54555;SDS011;57291;37.520;15.106;2022-08-25T02:25:49;5.30;;;2.55;;
54555;SDS011;57291;37.520;15.106;2022-08-25T02:28:16;4.10;;;2.75;;
54555;SDS011;57291;37.520;15.106;2022-08-25T02:30:44;4.78;;;2.80;;
54555;SDS011;57291;37.520;15.106;2022-08-25T02:33:12;4.68;;;2.70;;
54555;SDS011;57291;37.520;15.106;2022-08-25T02:35:39;4.20;;;3.33;;
54555;SDS011;57291;37.520;15.106;2022-08-25T02:38:06;6.60;;;3.28;;
54555;SDS011;57291;37.520;15.106;2022-08-25T02:40:34;5.07;;;3.15;;
54555;SDS011;57291;37.520;15.106;2022-08-25T02:43:01;4.50;;;2.65;;
54555;SDS011;57291;37.520;15.106;2022-08-25T02:45:29;5.05;;;3.03;;
54555;SDS011;57291;37.520;15.106;2022-08-25T02:47:56;7.88;;;3.83;;
54555;SDS011;57291;37.520;15.106;2022-08-25T02:50:23;5.25;;;2.80;;
54555;SDS011;57291;37.520;15.106;2022-08-25T02:52:51;5.93;;;3.08;;
54555;SDS011;57291;37.520;15.106;2022-08-25T02:55:19;4.70;;;3.10;;
54555;SDS011;57291;37.520;15.106;2022-08-25T02:57:46;5.35;;;3.00;;
54555;SDS011;57291;37.520;15.106;2022-08-25T03:00:14;3.75;;;2.58;;
54555;SDS011;57291;37.520;15.106;2022-08-25T03:02:43;5.20;;;2.80;;
54555;SDS011;57291;37.520;15.106;2022-08-25T03:05:11;5.97;;;3.00;;
54555;SDS011;57291;37.520;15.106;2022-08-25T03:07:40;4.18;;;2.95;;
54555;SDS011;57291;37.520;15.106;2022-08-25T03:10:09;8.23;;;3.40;;
54555;SDS011;57291;37.520;15.106;2022-08-25T03:12:40;4.43;;;2.67;;
54555;SDS011;57291;37.520;15.106;2022-08-25T03:15:08;4.43;;;2.88;;
54555;SDS011;57291;37.520;15.106;2022-08-25T03:17:38;6.50;;;3.20;;
54555;SDS011;57291;37.520;15.106;2022-08-25T03:20:11;6.55;;;3.30;;
54555;SDS011;57291;37.520;15.106;2022-08-25T03:22:38;4.90;;;2.85;;
54555;SDS011;57291;37.520;15.106;2022-08-25T03:25:06;9.48;;;3.35;;
54555;SDS011;57291;37.520;15.106;2022-08-25T03:27:53;4.47;;;2.67;;
54555;SDS011;57291;37.520;15.106;2022-08-25T03:30:21;4.57;;;2.92;;
54555;SDS011;57291;37.520;15.106;2022-08-25T03:32:48;5.47;;;2.72;;
54555;SDS011;57291;37.520;15.106;2022-08-25T03:35:16;5.53;;;2.72;;
54555;SDS011;57291;37.520;15.106;2022-08-25T03:37:43;5.07;;;3.25;;
54555;SDS011;57291;37.520;15.106;2022-08-25T03:40:11;6.72;;;3.50;;
54555;SDS011;57291;37.520;15.106;2022-08-25T03:42:42;6.13;;;2.72;;
54555;SDS011;57291;37.520;15.106;2022-08-25T03:45:12;7.25;;;3.25;;
54555;SDS011;57291;37.520;15.106;2022-08-25T03:47:44;6.75;;;3.20;;
54555;SDS011;57291;37.520;15.106;2022-08-25T03:50:14;7.45;;;3.60;;
54555;SDS011;57291;37.520;15.106;2022-08-25T03:52:42;5.95;;;3.42;;
54555;SDS011;57291;37.520;15.106;2022-08-25T03:55:11;6.70;;;3.85;;
54555;SDS011;57291;37.520;15.106;2022-08-25T03:57:40;8.27;;;3.38;;
54555;SDS011;57291;37.520;15.106;2022-08-25T04:00:08;6.75;;;3.40;;
54555;SDS011;57291;37.520;15.106;2022-08-25T04:02:38;6.93;;;3.63;;
54555;SDS011;57291;37.520;15.106;2022-08-25T04:05:06;7.50;;;3.55;;
54555;SDS011;57291;37.520;15.106;2022-08-25T04:07:34;7.15;;;3.10;;
54555;SDS011;57291;37.520;15.106;2022-08-25T04:10:03;5.65;;;3.17;;
54555;SDS011;57291;37.520;15.106;2022-08-25T04:12:31;6.43;;;3.47;;
54555;SDS011;57291;37.520;15.106;2022-08-25T04:14:59;7.05;;;3.15;;
54555;SDS011;57291;37.520;15.106;2022-08-25T04:17:26;7.30;;;2.80;;
54555;SDS011;57291;37.520;15.106;2022-08-25T04:19:54;7.18;;;3.05;;
54555;SDS011;57291;37.520;15.106;2022-08-25T04:22:21;5.43;;;2.75;;
54555;SDS011;57291;37.520;15.106;2022-08-25T04:24:49;6.28;;;2.80;;
54555;SDS011;57291;37.520;15.106;2022-08-25T04:27:16;6.40;;;2.72;;
54555;SDS011;57291;37.520;15.106;2022-08-25T04:29:43;5.18;;;2.60;;
54555;SDS011;57291;37.520;15.106;2022-08-25T04:32:10;6.85;;;2.70;;
54555;SDS011;57291;37.520;15.106;2022-08-25T04:34:38;6.65;;;2.70;;
54555;SDS011;57291;37.520;15.106;2022-08-25T04:37:05;5.07;;;2.78;;
54555;SDS011;57291;37.520;15.106;2022-08-25T04:39:33;5.25;;;2.75;;
54555;SDS011;57291;37.520;15.106;2022-08-25T04:42:01;5.03;;;3.25;;
54555;SDS011;57291;37.520;15.106;2022-08-25T04:44:31;4.78;;;2.85;;
54555;SDS011;57291;37.520;15.106;2022-08-25T04:46:58;3.88;;;2.70;;
54555;SDS011;57291;37.520;15.106;2022-08-25T04:49:27;4.78;;;2.63;;
54555;SDS011;57291;37.520;15.106;2022-08-25T04:51:54;4.75;;;2.90;;
54555;SDS011;57291;37.520;15.106;2022-08-25T04:54:23;3.80;;;2.35;;
54555;SDS011;57291;37.520;15.106;2022-08-25T04:56:50;4.60;;;2.92;;
54555;SDS011;57291;37.520;15.106;2022-08-25T04:59:24;5.95;;;2.50;;
54555;SDS011;57291;37.520;15.106;2022-08-25T05:01:56;4.47;;;2.17;;
54555;SDS011;57291;37.520;15.106;2022-08-25T05:04:28;4.97;;;2.70;;
54555;SDS011;57291;37.520;15.106;2022-08-25T05:06:56;8.23;;;3.20;;
54555;SDS011;57291;37.520;15.106;2022-08-25T05:09:24;4.28;;;2.33;;
54555;SDS011;57291;37.520;15.106;2022-08-25T05:11:52;4.20;;;2.50;;
54555;SDS011;57291;37.520;15.106;2022-08-25T05:14:20;5.60;;;2.60;;
54555;SDS011;57291;37.520;15.106;2022-08-25T05:16:52;6.70;;;3.10;;
54555;SDS011;57291;37.520;15.106;2022-08-25T05:19:20;4.15;;;2.10;;
54555;SDS011;57291;37.520;15.106;2022-08-25T05:21:50;5.55;;;2.25;;
54555;SDS011;57291;37.520;15.106;2022-08-25T05:24:18;3.88;;;2.03;;
54555;SDS011;57291;37.520;15.106;2022-08-25T05:26:46;8.07;;;2.50;;
54555;SDS011;57291;37.520;15.106;2022-08-25T05:29:13;5.28;;;2.88;;
54555;SDS011;57291;37.520;15.106;2022-08-25T05:31:41;7.45;;;2.70;;
54555;SDS011;57291;37.520;15.106;2022-08-25T05:34:16;5.28;;;2.45;;
54555;SDS011;57291;37.520;15.106;2022-08-25T05:36:45;6.00;;;2.60;;
54555;SDS011;57291;37.520;15.106;2022-08-25T05:39:13;6.28;;;2.50;;
54555;SDS011;57291;37.520;15.106;2022-08-25T05:41:40;6.57;;;2.70;;
54555;SDS011;57291;37.520;15.106;2022-08-25T05:44:08;7.55;;;2.88;;
54555;SDS011;57291;37.520;15.106;2022-08-25T05:46:35;4.95;;;2.80;;
54555;SDS011;57291;37.520;15.106;2022-08-25T05:49:02;6.82;;;2.70;;
54555;SDS011;57291;37.520;15.106;2022-08-25T05:51:30;7.45;;;2.72;;
54555;SDS011;57291;37.520;15.106;2022-08-25T05:53:57;9.02;;;2.85;;
54555;SDS011;57291;37.520;15.106;2022-08-25T05:56:24;8.65;;;3.17;;
54555;SDS011;57291;37.520;15.106;2022-08-25T05:58:51;8.20;;;4.18;;
54555;SDS011;57291;37.520;15.106;2022-08-25T06:01:21;9.23;;;3.40;;
54555;SDS011;57291;37.520;15.106;2022-08-25T06:06:40;8.95;;;3.80;;
54555;SDS011;57291;37.520;15.106;2022-08-25T06:09:08;7.45;;;3.90;;
54555;SDS011;57291;37.520;15.106;2022-08-25T06:11:37;9.88;;;4.18;;
54555;SDS011;57291;37.520;15.106;2022-08-25T06:14:08;10.02;;;3.80;;
54555;SDS011;57291;37.520;15.106;2022-08-25T06:16:36;7.28;;;3.40;;
54555;SDS011;57291;37.520;15.106;2022-08-25T06:19:05;8.90;;;4.00;;
54555;SDS011;57291;37.520;15.106;2022-08-25T06:21:34;10.48;;;4.30;;
54555;SDS011;57291;37.520;15.106;2022-08-25T06:24:05;7.35;;;3.95;;
54555;SDS011;57291;37.520;15.106;2022-08-25T06:26:38;5.90;;;3.10;;
54555;SDS011;57291;37.520;15.106;2022-08-25T06:29:06;9.63;;;3.40;;
54555;SDS011;57291;37.520;15.106;2022-08-25T06:31:34;6.57;;;3.50;;
54555;SDS011;57291;37.520;15.106;2022-08-25T06:34:01;11.48;;;3.80;;
54555;SDS011;57291;37.520;15.106;2022-08-25T06:36:28;6.70;;;2.80;;
54555;SDS011;57291;37.520;15.106;2022-08-25T06:38:56;9.07;;;2.80;;
54555;SDS011;57291;37.520;15.106;2022-08-25T06:41:23;5.80;;;2.55;;
54555;SDS011;57291;37.520;15.106;2022-08-25T06:44:03;4.45;;;2.40;;
54555;SDS011;57291;37.520;15.106;2022-08-25T06:46:31;6.80;;;2.30;;
54555;SDS011;57291;37.520;15.106;2022-08-25T06:49:03;5.32;;;2.30;;
54555;SDS011;57291;37.520;15.106;2022-08-25T06:51:32;4.30;;;2.63;;
54555;SDS011;57291;37.520;15.106;2022-08-25T06:54:03;9.00;;;2.63;;
54555;SDS011;57291;37.520;15.106;2022-08-25T06:56:32;6.57;;;2.40;;
54555;SDS011;57291;37.520;15.106;2022-08-25T06:59:03;5.95;;;2.90;;
54555;SDS011;57291;37.520;15.106;2022-08-25T07:01:31;5.43;;;2.40;;
54555;SDS011;57291;37.520;15.106;2022-08-25T07:04:00;5.90;;;2.17;;
54555;SDS011;57291;37.520;15.106;2022-08-25T07:06:33;5.15;;;2.13;;
54555;SDS011;57291;37.520;15.106;2022-08-25T07:09:02;4.30;;;1.90;;
54555;SDS011;57291;37.520;15.106;2022-08-25T07:11:31;3.45;;;1.98;;
54555;SDS011;57291;37.520;15.106;2022-08-25T07:14:00;4.07;;;1.60;;
54555;SDS011;57291;37.520;15.106;2022-08-25T07:16:31;6.25;;;1.90;;
54555;SDS011;57291;37.520;15.106;2022-08-25T07:18:59;4.55;;;2.42;;
54555;SDS011;57291;37.520;15.106;2022-08-25T07:21:28;5.45;;;2.22;;
54555;SDS011;57291;37.520;15.106;2022-08-25T07:23:59;2.88;;;1.83;;
54555;SDS011;57291;37.520;15.106;2022-08-25T07:26:30;3.95;;;2.45;;
54555;SDS011;57291;37.520;15.106;2022-08-25T07:29:09;6.38;;;2.05;;
54555;SDS011;57291;37.520;15.106;2022-08-25T07:31:39;6.32;;;2.22;;
54555;SDS011;57291;37.520;15.106;2022-08-25T07:34:07;3.95;;;2.00;;
54555;SDS011;57291;37.520;15.106;2022-08-25T07:36:54;3.47;;;2.00;;
54555;SDS011;57291;37.520;15.106;2022-08-25T07:39:23;5.15;;;2.00;;
54555;SDS011;57291;37.520;15.106;2022-08-25T07:41:54;5.57;;;2.10;;
54555;SDS011;57291;37.520;15.106;2022-08-25T07:44:21;5.18;;;1.90;;
54555;SDS011;57291;37.520;15.106;2022-08-25T07:46:49;7.05;;;2.67;;
54555;SDS011;57291;37.520;15.106;2022-08-25T07:49:19;6.07;;;2.50;;
54555;SDS011;57291;37.520;15.106;2022-08-25T07:51:49;3.97;;;2.20;;
54555;SDS011;57291;37.520;15.106;2022-08-25T07:54:32;3.72;;;2.40;;
54555;SDS011;57291;37.520;15.106;2022-08-25T07:59:32;5.38;;;2.30;;
54555;SDS011;57291;37.520;15.106;2022-08-25T08:02:06;8.63;;;2.80;;
54555;SDS011;57291;37.520;15.106;2022-08-25T08:04:43;7.03;;;2.45;;
54555;SDS011;57291;37.520;15.106;2022-08-25T08:07:11;4.65;;;2.22;;
54555;SDS011;57291;37.520;15.106;2022-08-25T08:09:42;5.32;;;2.40;;
54555;SDS011;57291;37.520;15.106;2022-08-25T08:12:11;3.78;;;2.28;;
54555;SDS011;57291;37.520;15.106;2022-08-25T08:14:40;4.88;;;2.17;;
54555;SDS011;57291;37.520;15.106;2022-08-25T08:17:11;4.18;;;2.45;;
54555;SDS011;57291;37.520;15.106;2022-08-25T08:19:39;5.30;;;2.38;;
54555;SDS011;57291;37.520;15.106;2022-08-25T08:22:11;5.10;;;2.17;;
54555;SDS011;57291;37.520;15.106;2022-08-25T08:24:44;3.95;;;2.42;;
54555;SDS011;57291;37.520;15.106;2022-08-25T08:27:22;3.22;;;2.17;;
54555;SDS011;57291;37.520;15.106;2022-08-25T08:29:49;4.45;;;2.33;;
54555;SDS011;57291;37.520;15.106;2022-08-25T08:32:18;5.72;;;2.25;;
54555;SDS011;57291;37.520;15.106;2022-08-25T08:34:51;6.32;;;1.90;;
54555;SDS011;57291;37.520;15.106;2022-08-25T08:37:18;4.65;;;1.92;;
54555;SDS011;57291;37.520;15.106;2022-08-25T08:39:48;4.50;;;2.35;;
54555;SDS011;57291;37.520;15.106;2022-08-25T08:45:05;4.47;;;2.15;;
54555;SDS011;57291;37.520;15.106;2022-08-25T08:47:57;4.78;;;2.30;;
54555;SDS011;57291;37.520;15.106;2022-08-25T08:53:15;3.40;;;2.17;;
54555;SDS011;57291;37.520;15.106;2022-08-25T08:55:51;6.20;;;2.60;;
54555;SDS011;57291;37.520;15.106;2022-08-25T08:58:21;4.57;;;2.70;;
54555;SDS011;57291;37.520;15.106;2022-08-25T09:01:09;5.85;;;2.55;;
54555;SDS011;57291;37.520;15.106;2022-08-25T09:03:43;3.78;;;2.53;;
54555;SDS011;57291;37.520;15.106;2022-08-25T09:06:36;7.00;;;2.70;;
54555;SDS011;57291;37.520;15.106;2022-08-25T09:09:31;4.80;;;2.38;;
54555;SDS011;57291;37.520;15.106;2022-08-25T09:12:12;7.15;;;3.00;;
54555;SDS011;57291;37.520;15.106;2022-08-25T09:20:32;4.75;;;2.80;;
54555;SDS011;57291;37.520;15.106;2022-08-25T09:28:31;4.57;;;2.63;;
54555;SDS011;57291;37.520;15.106;2022-08-25T09:31:14;5.50;;;3.15;;
54555;SDS011;57291;37.520;15.106;2022-08-25T09:33:56;4.68;;;3.03;;
54555;SDS011;57291;37.520;15.106;2022-08-25T09:36:27;4.55;;;3.00;;
54555;SDS011;57291;37.520;15.106;2022-08-25T09:38:59;6.05;;;3.58;;
54555;SDS011;57291;37.520;15.106;2022-08-25T09:41:42;7.13;;;3.60;;
54555;SDS011;57291;37.520;15.106;2022-08-25T09:44:31;14.13;;;5.05;;
54555;SDS011;57291;37.520;15.106;2022-08-25T09:49:47;5.13;;;3.33;;
54555;SDS011;57291;37.520;15.106;2022-08-25T09:52:35;6.70;;;3.50;;
54555;SDS011;57291;37.520;15.106;2022-08-25T10:05:21;7.03;;;3.15;;
54555;SDS011;57291;37.520;15.106;2022-08-25T10:07:57;6.38;;;3.67;;
54555;SDS011;57291;37.520;15.106;2022-08-25T10:10:28;6.88;;;3.63;;
54555;SDS011;57291;37.520;15.106;2022-08-25T10:13:00;4.97;;;3.53;;
54555;SDS011;57291;37.520;15.106;2022-08-25T10:15:33;7.38;;;3.75;;
54555;SDS011;57291;37.520;15.106;2022-08-25T10:21:10;5.35;;;4.00;;
54555;SDS011;57291;37.520;15.106;2022-08-25T10:23:49;5.50;;;3.53;;
54555;SDS011;57291;37.520;15.106;2022-08-25T10:29:21;5.30;;;3.42;;
54555;SDS011;57291;37.520;15.106;2022-08-25T10:34:48;7.38;;;3.80;;
54555;SDS011;57291;37.520;15.106;2022-08-25T10:41:25;4.50;;;3.58;;
54555;SDS011;57291;37.520;15.106;2022-08-25T10:46:40;6.25;;;3.47;;
54555;SDS011;57291;37.520;15.106;2022-08-25T10:49:27;7.20;;;3.92;;
54555;SDS011;57291;37.520;15.106;2022-08-25T10:52:12;4.63;;;3.50;;
54555;SDS011;57291;37.520;15.106;2022-08-25T10:54:48;5.65;;;3.50;;
54555;SDS011;57291;37.520;15.106;2022-08-25T10:57:31;5.85;;;3.50;;
54555;SDS011;57291;37.520;15.106;2022-08-25T11:05:48;5.00;;;3.50;;
54555;SDS011;57291;37.520;15.106;2022-08-25T11:13:42;7.50;;;3.72;;
54555;SDS011;57291;37.520;15.106;2022-08-25T11:16:16;5.55;;;3.83;;
54555;SDS011;57291;37.520;15.106;2022-08-25T11:21:26;7.28;;;3.80;;
54555;SDS011;57291;37.520;15.106;2022-08-25T11:24:28;7.55;;;3.50;;
54555;SDS011;57291;37.520;15.106;2022-08-25T11:27:03;5.97;;;4.20;;
54555;SDS011;57291;37.520;15.106;2022-08-25T11:29:39;8.10;;;4.07;;
54555;SDS011;57291;37.520;15.106;2022-08-25T11:32:12;6.95;;;3.75;;
54555;SDS011;57291;37.520;15.106;2022-08-25T11:34:40;5.97;;;3.85;;
54555;SDS011;57291;37.520;15.106;2022-08-25T11:37:20;5.80;;;3.92;;
54555;SDS011;57291;37.520;15.106;2022-08-25T11:40:05;10.27;;;4.70;;
54555;SDS011;57291;37.520;15.106;2022-08-25T11:48:27;8.32;;;4.63;;
54555;SDS011;57291;37.520;15.106;2022-08-25T11:51:24;9.50;;;5.40;;
54555;SDS011;57291;37.520;15.106;2022-08-25T12:02:53;10.57;;;4.50;;
54555;SDS011;57291;37.520;15.106;2022-08-25T12:08:01;8.77;;;4.18;;
54555;SDS011;57291;37.520;15.106;2022-08-25T12:11:04;10.68;;;5.20;;
54555;SDS011;57291;37.520;15.106;2022-08-25T12:13:46;7.50;;;4.90;;
54555;SDS011;57291;37.520;15.106;2022-08-25T12:21:51;6.70;;;4.47;;
54555;SDS011;57291;37.520;15.106;2022-08-25T12:30:14;6.05;;;4.13;;
54555;SDS011;57291;37.520;15.106;2022-08-25T12:41:07;6.68;;;4.40;;
54555;SDS011;57291;37.520;15.106;2022-08-25T12:43:42;7.93;;;4.78;;
54555;SDS011;57291;37.520;15.106;2022-08-25T12:48:56;8.40;;;6.15;;
54555;SDS011;57291;37.520;15.106;2022-08-25T12:51:49;8.90;;;6.28;;
54555;SDS011;57291;37.520;15.106;2022-08-25T12:57:27;8.85;;;6.25;;
54555;SDS011;57291;37.520;15.106;2022-08-25T12:59:59;12.23;;;7.30;;
54555;SDS011;57291;37.520;15.106;2022-08-25T13:05:54;10.20;;;7.47;;
54555;SDS011;57291;37.520;15.106;2022-08-25T13:11:17;9.23;;;6.80;;
54555;SDS011;57291;37.520;15.106;2022-08-25T13:17:05;8.38;;;5.93;;
54555;SDS011;57291;37.520;15.106;2022-08-25T13:19:32;9.82;;;6.13;;
54555;SDS011;57291;37.520;15.106;2022-08-25T13:22:02;10.10;;;6.20;;
54555;SDS011;57291;37.520;15.106;2022-08-25T13:24:43;8.45;;;6.75;;
54555;SDS011;57291;37.520;15.106;2022-08-25T13:27:23;9.23;;;7.03;;
54555;SDS011;57291;37.520;15.106;2022-08-25T13:29:55;9.68;;;6.53;;
54555;SDS011;57291;37.520;15.106;2022-08-25T13:32:30;10.55;;;7.28;;
54555;SDS011;57291;37.520;15.106;2022-08-25T13:35:13;9.73;;;6.55;;
54555;SDS011;57291;37.520;15.106;2022-08-25T13:37:45;9.88;;;6.93;;
54555;SDS011;57291;37.520;15.106;2022-08-25T13:40:34;10.98;;;7.75;;
54555;SDS011;57291;37.520;15.106;2022-08-25T13:43:05;9.95;;;6.32;;
54555;SDS011;57291;37.520;15.106;2022-08-25T13:45:39;7.07;;;5.88;;
54555;SDS011;57291;37.520;15.106;2022-08-25T13:48:12;11.23;;;6.93;;
54555;SDS011;57291;37.520;15.106;2022-08-25T13:51:08;12.73;;;6.50;;
54555;SDS011;57291;37.520;15.106;2022-08-25T13:53:47;10.35;;;6.93;;
54555;SDS011;57291;37.520;15.106;2022-08-25T13:56:32;8.30;;;6.57;;
54555;SDS011;57291;37.520;15.106;2022-08-25T13:59:20;9.68;;;7.30;;
54555;SDS011;57291;37.520;15.106;2022-08-25T14:01:52;9.15;;;6.53;;
54555;SDS011;57291;37.520;15.106;2022-08-25T14:04:43;10.65;;;6.90;;
54555;SDS011;57291;37.520;15.106;2022-08-25T14:12:26;13.90;;;7.22;;
54555;SDS011;57291;37.520;15.106;2022-08-25T14:15:00;11.88;;;7.10;;
54555;SDS011;57291;37.520;15.106;2022-08-25T14:17:32;11.13;;;7.70;;
54555;SDS011;57291;37.520;15.106;2022-08-25T14:20:27;8.50;;;6.22;;
54555;SDS011;57291;37.520;15.106;2022-08-25T14:25:35;10.48;;;7.30;;
54555;SDS011;57291;37.520;15.106;2022-08-25T14:28:11;10.03;;;7.33;;
54555;SDS011;57291;37.520;15.106;2022-08-25T14:30:43;11.40;;;7.45;;
54555;SDS011;57291;37.520;15.106;2022-08-25T14:33:18;9.25;;;6.88;;
54555;SDS011;57291;37.520;15.106;2022-08-25T14:35:53;9.52;;;7.05;;
54555;SDS011;57291;37.520;15.106;2022-08-25T14:38:23;10.00;;;5.97;;
54555;SDS011;57291;37.520;15.106;2022-08-25T14:40:51;10.70;;;6.93;;
54555;SDS011;57291;37.520;15.106;2022-08-25T14:43:19;10.02;;;7.03;;
54555;SDS011;57291;37.520;15.106;2022-08-25T14:45:57;13.10;;;7.30;;
54555;SDS011;57291;37.520;15.106;2022-08-25T14:48:26;7.20;;;5.80;;
54555;SDS011;57291;37.520;15.106;2022-08-25T14:50:57;9.32;;;6.38;;
54555;SDS011;57291;37.520;15.106;2022-08-25T14:53:26;12.02;;;5.85;;
54555;SDS011;57291;37.520;15.106;2022-08-25T14:55:54;7.63;;;5.60;;
54555;SDS011;57291;37.520;15.106;2022-08-25T14:58:25;8.10;;;6.10;;
54555;SDS011;57291;37.520;15.106;2022-08-25T15:00:59;12.90;;;6.10;;
54555;SDS011;57291;37.520;15.106;2022-08-25T15:03:29;10.70;;;5.75;;
54555;SDS011;57291;37.520;15.106;2022-08-25T15:06:00;9.15;;;5.82;;
54555;SDS011;57291;37.520;15.106;2022-08-25T15:08:29;11.50;;;5.75;;
54555;SDS011;57291;37.520;15.106;2022-08-25T15:11:17;8.00;;;5.65;;
54555;SDS011;57291;37.520;15.106;2022-08-25T15:13:44;11.10;;;5.38;;
54555;SDS011;57291;37.520;15.106;2022-08-25T15:16:22;8.90;;;4.78;;
54555;SDS011;57291;37.520;15.106;2022-08-25T15:19:01;9.38;;;4.75;;
54555;SDS011;57291;37.520;15.106;2022-08-25T15:21:32;9.88;;;4.82;;
54555;SDS011;57291;37.520;15.106;2022-08-25T15:24:02;10.45;;;4.78;;
54555;SDS011;57291;37.520;15.106;2022-08-25T15:26:31;9.48;;;4.32;;
54555;SDS011;57291;37.520;15.106;2022-08-25T15:29:05;9.93;;;4.97;;
54555;SDS011;57291;37.520;15.106;2022-08-25T15:31:34;7.80;;;4.82;;
54555;SDS011;57291;37.520;15.106;2022-08-25T15:34:02;6.88;;;4.47;;
54555;SDS011;57291;37.520;15.106;2022-08-25T15:36:31;9.40;;;5.20;;
54555;SDS011;57291;37.520;15.106;2022-08-25T15:39:00;7.53;;;4.75;;
54555;SDS011;57291;37.520;15.106;2022-08-25T15:41:29;7.57;;;4.97;;
54555;SDS011;57291;37.520;15.106;2022-08-25T15:43:58;9.73;;;4.97;;
54555;SDS011;57291;37.520;15.106;2022-08-25T15:46:26;6.90;;;4.28;;
54555;SDS011;57291;37.520;15.106;2022-08-25T15:48:56;7.50;;;3.95;;
54555;SDS011;57291;37.520;15.106;2022-08-25T15:51:28;6.75;;;4.18;;
54555;SDS011;57291;37.520;15.106;2022-08-25T15:53:55;7.85;;;4.25;;
54555;SDS011;57291;37.520;15.106;2022-08-25T15:56:23;9.32;;;4.30;;
54555;SDS011;57291;37.520;15.106;2022-08-25T15:58:52;8.23;;;4.45;;
54555;SDS011;57291;37.520;15.106;2022-08-25T16:01:25;8.93;;;4.35;;
54555;SDS011;57291;37.520;15.106;2022-08-25T16:03:56;8.63;;;4.00;;
54555;SDS011;57291;37.520;15.106;2022-08-25T16:06:24;8.45;;;3.90;;
54555;SDS011;57291;37.520;15.106;2022-08-25T16:08:52;8.48;;;3.88;;
54555;SDS011;57291;37.520;15.106;2022-08-25T16:11:21;7.30;;;3.85;;
54555;SDS011;57291;37.520;15.106;2022-08-25T16:13:56;11.25;;;4.20;;
54555;SDS011;57291;37.520;15.106;2022-08-25T16:16:24;8.43;;;4.40;;
54555;SDS011;57291;37.520;15.106;2022-08-25T16:18:58;8.25;;;4.40;;
54555;SDS011;57291;37.520;15.106;2022-08-25T16:21:28;11.88;;;4.35;;
54555;SDS011;57291;37.520;15.106;2022-08-25T16:24:01;9.65;;;4.07;;
54555;SDS011;57291;37.520;15.106;2022-08-25T16:26:34;8.63;;;3.90;;
54555;SDS011;57291;37.520;15.106;2022-08-25T16:29:14;11.13;;;4.40;;
54555;SDS011;57291;37.520;15.106;2022-08-25T16:31:42;14.15;;;4.45;;
54555;SDS011;57291;37.520;15.106;2022-08-25T16:34:19;9.52;;;3.85;;
54555;SDS011;57291;37.520;15.106;2022-08-25T16:36:46;7.30;;;4.32;;
54555;SDS011;57291;37.520;15.106;2022-08-25T16:39:17;10.10;;;4.22;;
54555;SDS011;57291;37.520;15.106;2022-08-25T16:41:46;8.70;;;4.25;;
54555;SDS011;57291;37.520;15.106;2022-08-25T16:44:17;7.65;;;3.88;;
54555;SDS011;57291;37.520;15.106;2022-08-25T16:46:48;9.82;;;4.30;;
54555;SDS011;57291;37.520;15.106;2022-08-25T16:49:20;8.17;;;3.90;;
54555;SDS011;57291;37.520;15.106;2022-08-25T16:51:50;8.07;;;4.00;;
54555;SDS011;57291;37.520;15.106;2022-08-25T16:54:23;8.27;;;4.07;;
54555;SDS011;57291;37.520;15.106;2022-08-25T16:57:10;8.35;;;3.85;;
54555;SDS011;57291;37.520;15.106;2022-08-25T16:59:37;9.80;;;4.20;;
54555;SDS011;57291;37.520;15.106;2022-08-25T17:02:04;8.27;;;4.35;;
54555;SDS011;57291;37.520;15.106;2022-08-25T17:04:32;8.10;;;3.83;;
54555;SDS011;57291;37.520;15.106;2022-08-25T17:06:59;7.95;;;4.15;;
54555;SDS011;57291;37.520;15.106;2022-08-25T17:09:27;8.75;;;4.22;;
54555;SDS011;57291;37.520;15.106;2022-08-25T17:11:55;7.65;;;4.10;;